createdAt,value
2023-03-27T00:01:20.599Z,2.10
2023-03-27T00:04:09.099Z,2.23
2023-03-27T00:06:57.288Z,2.60
2023-03-27T00:09:45.190Z,2.40
2023-03-27T00:12:33.537Z,2.00
2023-03-27T00:15:23.108Z,2.00
2023-03-27T00:18:11.093Z,2.37
2023-03-27T00:21:00.806Z,2.23
2023-03-27T00:23:49.323Z,2.20
2023-03-27T00:26:40.305Z,1.93
2023-03-27T00:29:28.609Z,2.40
2023-03-27T00:32:17.915Z,2.30
2023-03-27T00:35:07.319Z,2.97
2023-03-27T00:37:55.977Z,2.20
2023-03-27T00:40:45.082Z,2.30
2023-03-27T00:43:36.246Z,2.23
2023-03-27T00:46:38.728Z,2.10
2023-03-27T00:49:31.500Z,1.67
2023-03-27T00:52:21.338Z,2.10
2023-03-27T00:55:14.284Z,2.37
2023-03-27T00:58:06.460Z,2.27
2023-03-27T01:00:57.001Z,1.90
2023-03-27T01:03:49.061Z,2.30
2023-03-27T01:06:41.945Z,1.90
2023-03-27T01:09:29.928Z,2.47
2023-03-27T01:12:34.543Z,2.00
2023-03-27T01:15:35.833Z,2.23
2023-03-27T01:18:36.174Z,1.90
2023-03-27T01:21:56.722Z,2.00
2023-03-27T01:25:13.615Z,1.80
2023-03-27T01:28:27.671Z,2.33
2023-03-27T01:31:40.299Z,2.07
2023-03-27T01:35:01.481Z,2.50
2023-03-27T01:38:28.717Z,2.03
2023-03-27T01:41:25.824Z,2.10
2023-03-27T01:44:18.527Z,1.90
2023-03-27T01:47:11.240Z,2.03
2023-03-27T01:50:08.051Z,2.50
2023-03-27T01:53:01.240Z,1.70
2023-03-27T01:55:53.915Z,1.73
2023-03-27T01:58:46.450Z,2.10
2023-03-27T02:01:38.522Z,2.30
2023-03-27T02:04:34.365Z,2.20
2023-03-27T02:07:30.247Z,1.97
2023-03-27T02:10:23.005Z,2.30
2023-03-27T02:13:18.359Z,2.43
2023-03-27T02:16:10.741Z,2.33
2023-03-27T02:19:03.077Z,2.50
2023-03-27T02:21:51.082Z,1.90
2023-03-27T02:24:40.159Z,2.10
2023-03-27T02:27:43.055Z,2.97
2023-03-27T02:30:37.155Z,2.37
2023-03-27T02:33:35.508Z,2.53
2023-03-27T02:36:31.351Z,2.23
2023-03-27T02:39:24.417Z,2.17
2023-03-27T02:42:18.810Z,2.17
2023-03-27T02:45:15.516Z,1.80
2023-03-27T02:48:08.897Z,1.87
2023-03-27T02:51:03.959Z,2.20
2023-03-27T02:53:58.437Z,2.00
2023-03-27T02:56:51.739Z,2.10
2023-03-27T02:59:44.924Z,2.00
2023-03-27T03:02:37.663Z,1.67
2023-03-27T03:05:27.432Z,1.57
2023-03-27T03:08:16.775Z,1.70
2023-03-27T03:11:06.372Z,1.53
2023-03-27T03:13:54.415Z,2.37
2023-03-27T03:16:42.438Z,2.13
2023-03-27T03:19:30.440Z,2.23
2023-03-27T03:22:18.536Z,1.70
2023-03-27T03:25:09.028Z,1.60
2023-03-27T03:28:01.464Z,1.70
2023-03-27T03:30:50.490Z,1.73
2023-03-27T03:33:38.670Z,1.93
2023-03-27T03:36:30.802Z,1.90
2023-03-27T03:39:19.299Z,2.20
2023-03-27T03:42:08.623Z,2.10
2023-03-27T03:44:56.557Z,2.60
2023-03-27T03:47:45.508Z,2.00
2023-03-27T03:50:33.617Z,2.37
2023-03-27T03:53:22.583Z,1.60
2023-03-27T03:56:10.717Z,1.83
2023-03-27T03:58:59.984Z,2.10
2023-03-27T04:01:48.098Z,2.10
2023-03-27T04:04:36.611Z,2.27
2023-03-27T04:07:25.296Z,2.40
2023-03-27T04:10:14.388Z,2.00
2023-03-27T04:13:02.370Z,2.00
2023-03-27T04:15:52.779Z,1.80
2023-03-27T04:18:41.484Z,2.27
2023-03-27T04:21:29.804Z,2.03
2023-03-27T04:24:18.268Z,2.07
2023-03-27T04:27:06.700Z,2.27
2023-03-27T04:29:54.709Z,2.30
2023-03-27T04:32:44.055Z,1.93
2023-03-27T04:35:33.467Z,2.30
2023-03-27T04:38:21.471Z,2.30
2023-03-27T04:41:09.396Z,2.30
2023-03-27T04:43:57.324Z,1.93
2023-03-27T04:46:45.536Z,2.47
2023-03-27T04:49:39.398Z,2.40
2023-03-27T04:52:29.591Z,2.00
2023-03-27T04:55:18.289Z,2.30
2023-03-27T04:58:06.709Z,2.20
2023-03-27T05:00:56.397Z,2.37
2023-03-27T05:03:45.969Z,2.13
2023-03-27T05:06:35.357Z,2.67
2023-03-27T05:09:23.982Z,2.13
2023-03-27T05:12:12.164Z,2.33
2023-03-27T05:15:02.930Z,2.30
2023-03-27T05:17:54.468Z,2.60
2023-03-27T05:20:43.887Z,2.97
2023-03-27T05:23:33.529Z,2.53
2023-03-27T05:26:22.244Z,3.00
2023-03-27T05:29:10.732Z,3.37
2023-03-27T05:32:01.173Z,3.00
2023-03-27T05:34:50.767Z,3.40
2023-03-27T05:37:38.860Z,2.87
2023-03-27T05:40:29.476Z,3.33
2023-03-27T05:43:17.424Z,2.93
2023-03-27T05:46:05.925Z,3.07
2023-03-27T05:48:53.899Z,3.30
2023-03-27T05:51:46.826Z,3.27
2023-03-27T05:54:35.789Z,3.40
2023-03-27T05:57:25.073Z,3.47
2023-03-27T06:00:14.355Z,3.00
2023-03-27T06:03:04.024Z,3.17
2023-03-27T06:05:52.369Z,3.17
2023-03-27T06:08:40.763Z,3.70
2023-03-27T06:11:28.915Z,3.40
2023-03-27T06:14:18.158Z,2.90
2023-03-27T06:17:06.426Z,3.37
2023-03-27T06:19:54.357Z,3.10
2023-03-27T06:22:47.780Z,2.50
2023-03-27T06:25:37.288Z,3.10
2023-03-27T06:28:25.478Z,3.10
2023-03-27T06:31:17.580Z,2.80
2023-03-27T06:34:05.583Z,2.50
2023-03-27T06:36:53.532Z,2.53
2023-03-27T06:39:42.853Z,2.93
2023-03-27T06:42:30.945Z,2.63
2023-03-27T06:45:19.101Z,2.40
2023-03-27T06:48:17.796Z,2.73
2023-03-27T06:51:09.028Z,2.20
2023-03-27T06:53:57.115Z,2.33
2023-03-27T06:56:45.078Z,2.87
2023-03-27T06:59:33.272Z,2.80
2023-03-27T07:02:21.153Z,2.23
2023-03-27T07:05:10.901Z,2.40
2023-03-27T07:08:01.195Z,2.20
2023-03-27T07:11:10.707Z,2.33
2023-03-27T07:14:00.133Z,2.03
2023-03-27T07:16:48.170Z,2.17
2023-03-27T07:19:37.276Z,2.00
2023-03-27T07:22:26.658Z,2.50
2023-03-27T07:25:14.643Z,1.90
2023-03-27T07:28:05.601Z,2.10
2023-03-27T07:30:54.028Z,1.90
2023-03-27T07:33:42.110Z,1.70
2023-03-27T07:36:30.222Z,2.17
2023-03-27T07:39:19.542Z,2.00
2023-03-27T07:42:08.627Z,1.70
2023-03-27T07:44:56.545Z,2.00
2023-03-27T07:47:45.386Z,2.20
2023-03-27T07:50:33.570Z,2.33
2023-03-27T07:53:33.199Z,1.90
2023-03-27T07:56:24.589Z,2.23
2023-03-27T07:59:12.806Z,2.03
2023-03-27T08:02:01.101Z,3.00
2023-03-27T08:04:49.103Z,2.70
2023-03-27T08:07:39.314Z,2.20
2023-03-27T08:10:27.394Z,2.00
2023-03-27T08:13:16.700Z,2.33
2023-03-27T08:16:06.584Z,1.83
2023-03-27T08:18:54.885Z,1.67
2023-03-27T08:21:43.076Z,2.00
2023-03-27T08:24:31.153Z,2.13
2023-03-27T08:27:19.771Z,1.63
2023-03-27T08:30:11.830Z,1.70
2023-03-27T08:33:00.228Z,2.10
2023-03-27T08:35:49.090Z,1.80
2023-03-27T08:38:39.305Z,1.80
2023-03-27T08:41:31.827Z,1.83
2023-03-27T08:44:22.755Z,2.00
2023-03-27T08:47:18.055Z,1.70
2023-03-27T08:50:17.339Z,1.97
2023-03-27T08:53:09.039Z,1.90
2023-03-27T08:55:57.288Z,1.90
2023-03-27T08:58:46.629Z,1.97
2023-03-27T09:01:41.612Z,2.27
2023-03-27T09:04:40.717Z,1.33
2023-03-27T09:07:36.072Z,2.03
2023-03-27T09:10:32.897Z,1.47
2023-03-27T09:13:26.308Z,1.73
2023-03-27T09:16:21.282Z,1.90
2023-03-27T09:19:15.029Z,1.87
2023-03-27T09:22:10.641Z,1.60
2023-03-27T09:25:07.692Z,1.70
2023-03-27T09:27:56.155Z,2.10
2023-03-27T09:30:45.175Z,1.80
2023-03-27T09:33:33.595Z,1.50
2023-03-27T09:36:21.821Z,2.03
2023-03-27T09:39:17.049Z,2.40
2023-03-27T09:42:11.149Z,1.63
2023-03-27T09:45:03.137Z,2.00
2023-03-27T09:48:01.311Z,1.23
2023-03-27T09:50:49.472Z,1.63
2023-03-27T09:53:39.785Z,2.17
2023-03-27T09:56:29.538Z,2.10
2023-03-27T09:59:25.014Z,1.43
2023-03-27T10:02:19.876Z,1.53
2023-03-27T10:05:16.693Z,1.53
2023-03-27T10:08:31.132Z,1.27
2023-03-27T10:11:21.699Z,1.50
2023-03-27T10:14:17.617Z,1.43
2023-03-27T10:17:06.573Z,1.90
2023-03-27T10:19:58.947Z,1.67
2023-03-27T10:22:54.706Z,1.63
2023-03-27T10:25:52.066Z,1.37
2023-03-27T10:28:45.333Z,1.50
2023-03-27T10:31:38.034Z,1.50
2023-03-27T10:34:33.507Z,1.30
2023-03-27T10:37:28.044Z,1.13
2023-03-27T10:40:19.557Z,0.90
2023-03-27T10:43:12.875Z,1.73
2023-03-27T10:46:04.711Z,0.93
2023-03-27T10:49:02.329Z,1.10
2023-03-27T10:51:53.341Z,0.90
2023-03-27T10:54:47.948Z,1.00
2023-03-27T10:57:38.024Z,0.70
2023-03-27T11:00:32.794Z,0.70
2023-03-27T11:03:28.042Z,1.00
2023-03-27T11:06:20.103Z,1.10
2023-03-27T11:09:16.197Z,1.20
2023-03-27T11:12:08.118Z,1.33
2023-03-27T11:15:01.391Z,1.00
2023-03-27T11:17:54.256Z,0.80
2023-03-27T11:20:46.168Z,1.73
2023-03-27T11:23:40.657Z,1.47
2023-03-27T11:26:34.877Z,1.03
2023-03-27T11:29:28.402Z,0.90
2023-03-27T11:32:25.566Z,1.07
2023-03-27T11:35:16.464Z,1.30
2023-03-27T11:38:08.523Z,1.07
2023-03-27T11:40:58.262Z,1.10
2023-03-27T11:43:47.357Z,1.00
2023-03-27T11:46:50.396Z,0.83
2023-03-27T11:50:03.069Z,0.77
2023-03-27T11:53:14.619Z,1.10
2023-03-27T11:56:20.046Z,0.87
2023-03-27T11:59:24.539Z,0.80
2023-03-27T12:02:29.330Z,0.90
2023-03-27T12:05:25.027Z,0.83
2023-03-27T12:08:21.344Z,0.87
2023-03-27T12:11:12.926Z,0.90
2023-03-27T12:14:40.597Z,0.83
2023-03-27T12:17:37.786Z,1.03
2023-03-27T12:20:53.044Z,0.73
2023-03-27T12:24:11.320Z,1.10
2023-03-27T12:27:28.770Z,1.37
2023-03-27T12:30:26.859Z,0.67
2023-03-27T12:33:31.691Z,1.00
2023-03-27T12:36:24.288Z,1.10
2023-03-27T12:39:21.124Z,0.97
2023-03-27T12:42:14.565Z,1.10
2023-03-27T12:45:14.396Z,0.80
2023-03-27T12:48:16.516Z,1.00
2023-03-27T12:51:14.948Z,0.90
2023-03-27T12:54:24.044Z,1.17
2023-03-27T12:57:17.535Z,0.70
2023-03-27T13:00:19.256Z,0.70
2023-03-27T13:03:28.731Z,1.03
2023-03-27T13:06:31.254Z,0.73
2023-03-27T13:09:42.139Z,0.60
2023-03-27T13:13:04.476Z,1.27
2023-03-27T13:16:15.751Z,0.93
2023-03-27T13:19:17.694Z,0.70
2023-03-27T13:22:20.627Z,0.83
2023-03-27T13:25:23.017Z,0.70
2023-03-27T13:28:28.278Z,0.70
2023-03-27T13:32:01.549Z,0.60
2023-03-27T13:35:05.077Z,0.80
2023-03-27T13:38:00.757Z,0.87
2023-03-27T13:40:49.733Z,0.53
2023-03-27T13:43:38.921Z,0.50
2023-03-27T13:46:30.883Z,0.60
2023-03-27T13:49:48.752Z,0.80
2023-03-27T13:53:09.235Z,0.90
2023-03-27T13:56:10.962Z,1.07
2023-03-27T13:59:28.179Z,0.73
2023-03-27T14:03:04.067Z,0.73
2023-03-27T14:06:30.729Z,1.17
2023-03-27T14:09:27.851Z,0.90
2023-03-27T14:12:21.275Z,1.10
2023-03-27T14:15:27.673Z,1.03
2023-03-27T14:18:43.789Z,1.10
2023-03-27T14:21:50.916Z,1.00
2023-03-27T14:24:43.571Z,0.80
2023-03-27T14:27:33.499Z,0.97
2023-03-27T14:30:23.401Z,0.90
2023-03-27T14:33:11.854Z,0.77
2023-03-27T14:36:05.573Z,0.90
2023-03-27T14:38:54.010Z,0.70
2023-03-27T14:41:47.166Z,0.90
2023-03-27T14:44:35.166Z,0.80
2023-03-27T14:47:23.950Z,0.63
2023-03-27T14:50:15.810Z,0.70
2023-03-27T14:53:09.490Z,0.60
2023-03-27T14:56:01.488Z,0.60
2023-03-27T14:58:51.895Z,0.70
2023-03-27T15:01:42.289Z,0.70
2023-03-27T15:04:32.572Z,0.83
2023-03-27T15:07:28.696Z,0.70
2023-03-27T15:10:26.766Z,0.90
2023-03-27T15:13:14.765Z,0.77
2023-03-27T15:16:04.193Z,0.80
2023-03-27T15:18:58.698Z,0.87
2023-03-27T15:21:53.105Z,0.70
2023-03-27T15:24:45.884Z,0.60
2023-03-27T15:27:38.168Z,1.27
2023-03-27T15:30:30.237Z,0.80
2023-03-27T15:33:26.250Z,0.73
2023-03-27T15:36:28.388Z,0.60
2023-03-27T15:39:22.283Z,0.50
2023-03-27T15:42:14.942Z,0.70
2023-03-27T15:45:05.959Z,0.53
2023-03-27T15:48:02.901Z,0.97
2023-03-27T15:50:56.557Z,0.80
2023-03-27T15:53:46.305Z,0.43
2023-03-27T15:56:39.961Z,0.50
2023-03-27T15:59:28.795Z,0.50
2023-03-27T16:02:18.950Z,0.57
2023-03-27T16:05:07.535Z,0.80
2023-03-27T16:07:55.483Z,0.53
2023-03-27T16:10:48.915Z,1.03
2023-03-27T16:13:43.140Z,1.50
2023-03-27T16:16:33.894Z,1.33
2023-03-27T16:19:23.299Z,1.03
2023-03-27T16:22:13.224Z,0.73
2023-03-27T16:25:02.982Z,1.07
2023-03-27T16:27:54.710Z,0.50
2023-03-27T16:30:42.837Z,0.80
2023-03-27T16:33:30.833Z,0.40
2023-03-27T16:36:26.577Z,0.60
2023-03-27T16:39:14.557Z,0.80
2023-03-27T16:42:02.738Z,0.50
2023-03-27T16:44:51.237Z,0.77
2023-03-27T16:47:41.382Z,0.70
2023-03-27T16:50:30.755Z,0.70
2023-03-27T16:53:20.146Z,0.60
2023-03-27T16:56:09.328Z,0.63
2023-03-27T16:58:57.286Z,0.70
2023-03-27T17:01:45.647Z,0.50
2023-03-27T17:04:33.733Z,0.70
2023-03-27T17:07:21.740Z,0.70
2023-03-27T17:10:11.802Z,0.60
2023-03-27T17:12:59.911Z,0.57
2023-03-27T17:15:51.090Z,0.70
2023-03-27T17:18:39.044Z,0.50
2023-03-27T17:21:27.549Z,0.80
2023-03-27T17:24:17.394Z,0.57
2023-03-27T17:27:06.661Z,0.53
2023-03-27T17:29:55.983Z,0.70
2023-03-27T17:32:45.887Z,0.70
2023-03-27T17:35:33.838Z,0.60
2023-03-27T17:38:22.950Z,0.93
2023-03-27T17:41:12.760Z,0.60
2023-03-27T17:44:02.171Z,0.60
2023-03-27T17:46:50.247Z,0.77
2023-03-27T17:49:38.331Z,0.73
2023-03-27T17:52:27.222Z,0.70
2023-03-27T17:55:15.541Z,0.80
2023-03-27T17:58:09.353Z,0.90
2023-03-27T18:00:59.249Z,0.63
2023-03-27T18:03:47.824Z,0.73
2023-03-27T18:06:36.559Z,0.67
2023-03-27T18:09:24.516Z,0.70
2023-03-27T18:12:12.500Z,1.03
2023-03-27T18:15:00.483Z,0.57
2023-03-27T18:17:49.828Z,1.00
2023-03-27T18:20:38.458Z,0.90
2023-03-27T18:23:27.329Z,0.93
2023-03-27T18:26:16.012Z,0.70
2023-03-27T18:29:04.122Z,1.00
2023-03-27T18:31:52.289Z,1.90
2023-03-27T18:34:41.631Z,1.00
2023-03-27T18:37:29.678Z,1.10
2023-03-27T18:40:19.609Z,1.17
2023-03-27T18:43:07.800Z,1.23
2023-03-27T18:45:57.348Z,1.00
2023-03-27T18:48:46.279Z,0.80
2023-03-27T18:51:35.680Z,0.93
2023-03-27T18:54:23.791Z,0.90
2023-03-27T18:57:13.451Z,0.80
2023-03-27T19:00:01.871Z,0.90
2023-03-27T19:02:49.934Z,1.00
2023-03-27T19:05:37.972Z,0.90
2023-03-27T19:08:27.284Z,0.90
2023-03-27T19:11:15.256Z,0.87
2023-03-27T19:14:03.141Z,0.97
2023-03-27T19:16:53.399Z,0.77
2023-03-27T19:19:42.208Z,1.20
2023-03-27T19:22:31.145Z,0.70
2023-03-27T19:25:20.801Z,0.40
2023-03-27T19:28:08.924Z,0.60
2023-03-27T19:30:56.984Z,0.80
2023-03-27T19:33:46.020Z,0.97
2023-03-27T19:36:34.439Z,0.60
2023-03-27T19:39:22.488Z,0.80
2023-03-27T19:42:11.846Z,0.87
2023-03-27T19:44:59.779Z,1.00
2023-03-27T19:47:47.777Z,1.13
2023-03-27T19:50:35.774Z,1.00
2023-03-27T19:53:23.740Z,0.90
2023-03-27T19:56:11.694Z,0.80
2023-03-27T19:59:01.167Z,0.87
2023-03-27T20:01:49.102Z,0.90
2023-03-27T20:04:37.029Z,1.63
2023-03-27T20:07:24.983Z,1.42
2023-03-27T20:10:12.876Z,0.70
2023-03-27T20:13:01.257Z,0.90
2023-03-27T20:15:51.984Z,1.10
2023-03-27T20:18:41.747Z,0.80
2023-03-27T20:21:32.435Z,0.80
2023-03-27T20:24:20.392Z,0.93
2023-03-27T20:27:08.330Z,1.13
2023-03-27T20:29:56.365Z,0.90
2023-03-27T20:32:45.673Z,0.93
2023-03-27T20:35:36.502Z,1.00
2023-03-27T20:38:28.719Z,1.10
2023-03-27T20:41:16.840Z,0.80
2023-03-27T20:44:04.823Z,1.17
2023-03-27T20:46:54.543Z,0.70
2023-03-27T20:49:45.475Z,1.00
2023-03-27T20:52:33.573Z,1.10
2023-03-27T20:55:32.904Z,1.50
2023-03-27T20:58:24.003Z,1.00
2023-03-27T21:01:12.174Z,0.73
2023-03-27T21:04:02.166Z,1.10
2023-03-27T21:06:54.729Z,1.03
2023-03-27T21:09:43.536Z,0.80
2023-03-27T21:12:31.444Z,0.80
2023-03-27T21:15:19.458Z,0.80
2023-03-27T21:18:07.557Z,1.00
2023-03-27T21:20:55.501Z,0.77
2023-03-27T21:23:44.878Z,1.00
2023-03-27T21:26:32.952Z,1.00
2023-03-27T21:29:21.031Z,1.10
2023-03-27T21:32:09.252Z,1.40
2023-03-27T21:34:57.650Z,1.50
2023-03-27T21:37:45.692Z,1.13
2023-03-27T21:40:35.038Z,0.90
2023-03-27T21:43:23.021Z,1.00
2023-03-27T21:46:11.248Z,1.17
2023-03-27T21:48:59.237Z,1.23
2023-03-27T21:51:47.131Z,1.67
2023-03-27T21:54:35.162Z,1.10
2023-03-27T21:57:26.195Z,1.83
2023-03-27T22:00:15.849Z,1.50
2023-03-27T22:03:03.911Z,1.57
2023-03-27T22:06:01.537Z,0.67
2023-03-27T22:08:58.642Z,1.40
2023-03-27T22:11:47.005Z,1.17
2023-03-27T22:14:36.237Z,1.37
2023-03-27T22:17:24.315Z,1.53
2023-03-27T22:20:12.808Z,1.03
2023-03-27T22:23:01.053Z,1.00
2023-03-27T22:25:53.371Z,1.53
2023-03-27T22:28:41.306Z,1.70
2023-03-27T22:31:30.686Z,1.27
2023-03-27T22:34:18.689Z,1.83
2023-03-27T22:37:07.316Z,1.57
2023-03-27T22:39:55.454Z,1.87
2023-03-27T22:42:43.397Z,1.50
2023-03-27T22:45:31.392Z,1.73
2023-03-27T22:48:21.080Z,1.40
2023-03-27T22:51:10.322Z,1.83
2023-03-27T22:53:58.564Z,1.40
2023-03-27T22:56:47.133Z,1.60
2023-03-27T22:59:35.385Z,1.57
2023-03-27T23:02:23.511Z,1.40
2023-03-27T23:05:12.822Z,1.53
2023-03-27T23:08:00.794Z,1.60
2023-03-27T23:10:56.141Z,1.60
2023-03-27T23:13:44.502Z,1.70
2023-03-27T23:16:32.648Z,1.63
2023-03-27T23:19:20.681Z,1.47
2023-03-27T23:22:09.947Z,1.33
2023-03-27T23:24:57.950Z,1.63
2023-03-27T23:27:46.245Z,1.43
2023-03-27T23:30:34.253Z,1.63
2023-03-27T23:33:24.853Z,2.00
2023-03-27T23:36:14.463Z,1.67
2023-03-27T23:39:03.894Z,1.50
2023-03-27T23:41:51.772Z,2.07
2023-03-27T23:44:39.763Z,1.57
2023-03-27T23:47:27.724Z,1.80
2023-03-27T23:50:15.762Z,2.00
2023-03-27T23:53:03.672Z,1.83
2023-03-27T23:55:53.016Z,1.70
2023-03-27T23:58:41.128Z,1.93
